Time;durP1;ratioP1;P1;durP2;ratioP2;P2;SDS_P1;SDS_P2;PMS_P1;PMS_P2;Temp;Humidity;BMP_temperature;BMP_pressure;BME280_temperature;BME280_humidity;BME280_pressure;Samples;Min_cycle;Max_cycle;Signal;HPM_P1;HPM_P2
2023/12/07 00:02:12;;;;;;;;;;;;;;;;;;5105995;28;20015;-57
2023/12/07 00:04:37;;;;;;;;;;;;;;;;;;5106096;28;19924;-57
2023/12/07 00:07:03;;;;;;;;;;;;;;;;;;5106503;28;19931;-56
2023/12/07 00:09:28;;;;;;;;;;;;;;;;;;5105636;28;19935;-57
2023/12/07 00:11:54;;;;;;;;;;;;;;;;;;5106246;28;20395;-57
2023/12/07 00:14:19;;;;;;;;;;;;;;;;;;5105226;28;20387;-57
2023/12/07 00:16:45;;;;;;;;;;;;;;;;;;5106640;28;19970;-57
2023/12/07 00:19:10;;;;;;;;;;;;;;;;;;5109906;28;19961;-57
2023/12/07 00:21:36;;;;;;;;;;;;;;;;;;5106683;28;19951;-56
2023/12/07 00:24:01;;;;;;;;;;;;;;;;;;5104987;28;20003;-56
2023/12/07 00:26:27;;;;;;;;;;;;;;;;;;5106254;28;20390;-56
2023/12/07 00:28:52;;;;;;;;;;;;;;;;;;5106492;28;19967;-57
2023/12/07 00:31:18;;;;;;;;;;;;;;;;;;5105372;28;19935;-57
2023/12/07 00:33:45;;;;;;;;;;;;;;;;;;5105319;28;19924;-56
2023/12/07 00:36:12;;;;;;;;;;;;;;;;;;5105322;28;19959;-57
2023/12/07 00:38:37;;;;;;;;;;;;;;;;;;5109074;28;19924;-57
2023/12/07 00:41:03;;;;;;;;;;;;;;;;;;5109297;28;19969;-57
2023/12/07 00:43:28;;;;;;;;;;;;;;;;;;5108366;28;19924;-57
2023/12/07 00:45:54;;;;;;;;;;;;;;;;;;5109066;28;19970;-57
2023/12/07 00:48:19;;;;;;;;;;;;;;;;;;5109460;28;19927;-57
2023/12/07 00:50:45;;;;;;;;;;;;;;;;;;5110014;28;19924;-57
2023/12/07 00:53:10;;;;;;;;;;;;;;;;;;5109183;28;19932;-56
2023/12/07 00:55:36;;;;;;;;;;;;;;;;;;5108798;28;20018;-57
2023/12/07 00:58:02;;;;;;;;;;;;;;;;;;5109287;28;19923;-57
2023/12/07 01:00:27;;;;;;;;;;;;;;;;;;5108587;28;19927;-57
2023/12/07 01:02:52;;;;;;;;;;;;;;;;;;5108040;28;19993;-57
2023/12/07 01:05:18;;;;;;;;;;;;;;;;;;5108713;28;20006;-57
2023/12/07 01:07:43;;;;;;;;;;;;;;;;;;5109672;28;19974;-57
2023/12/07 01:10:09;;;;;;;;;;;;;;;;;;5109019;28;19971;-57
2023/12/07 01:12:35;;;;;;;;;;;;;;;;;;5108709;28;19936;-57
2023/12/07 01:15:01;;;;;;;;;;;;;;;;;;5108845;28;19955;-57
2023/12/07 01:17:26;;;;;;;;;;;;;;;;;;5109335;28;20006;-57
2023/12/07 01:19:52;;;;;;;;;;;;;;;;;;5111204;28;20018;-57
2023/12/07 01:22:17;;;;;;;;;;;;;;;;;;5108464;28;20401;-57
2023/12/07 01:24:43;;;;;;;;;;;;;;;;;;5108211;28;19939;-56
2023/12/07 01:27:09;;;;;;;;;;;;;;;;;;5108244;28;19992;-57
2023/12/07 01:29:34;;;;;;;;;;;;;;;;;;5108173;28;20054;-57
2023/12/07 01:32:00;;;;;;;;;;;;;;;;;;5108193;28;20007;-57
2023/12/07 01:34:25;;;;;;;;;;;;;;;;;;5107988;28;20027;-57
2023/12/07 01:36:51;;;;;;;;;;;;;;;;;;5107786;28;20457;-57
2023/12/07 01:39:16;;;;;;;;;;;;;;;;;;5108578;28;19987;-57
2023/12/07 01:41:42;;;;;;;;;;;;;;;;;;5108668;28;20002;-57
2023/12/07 01:44:07;;;;;;;;;;;;;;;;;;5108330;28;20623;-57
2023/12/07 01:46:33;;;;;;;;;;;;;;;;;;5108675;28;20027;-57
2023/12/07 01:48:58;;;;;;;;;;;;;;;;;;5108231;28;19931;-57
2023/12/07 01:51:24;;;;;;;;;;;;;;;;;;5108319;28;20010;-57
2023/12/07 01:53:49;;;;;;;;;;;;;;;;;;5108463;28;20398;-57
2023/12/07 01:56:15;;;;;;;;;;;;;;;;;;5107590;28;19924;-56
2023/12/07 01:58:41;;;;;;;;;;;;;;;;;;5108079;28;19978;-57
2023/12/07 02:01:06;;;;;;;;;;;;;;;;;;5108786;28;20022;-57
2023/12/07 02:03:32;;;;;;;;;;;;;;;;;;5107981;28;20277;-56
2023/12/07 02:05:58;;;;;;;;;;;;;;;;;;5108410;28;19934;-57
2023/12/07 02:08:23;;;;;;;;;;;;;;;;;;5108272;28;19924;-57
2023/12/07 02:10:48;;;;;;;;;;;;;;;;;;5108419;28;20486;-56
2023/12/07 02:13:14;;;;;;;;;;;;;;;;;;5107730;28;20287;-57
2023/12/07 02:15:39;;;;;;;;;;;;;;;;;;5107237;28;19934;-57
2023/12/07 02:18:05;;;;;;;;;;;;;;;;;;5107368;28;19967;-57
2023/12/07 02:20:30;;;;;;;;;;;;;;;;;;5107692;28;19979;-57
2023/12/07 02:22:56;;;;;;;;;;;;;;;;;;5112042;28;20291;-57
2023/12/07 02:25:21;;;;;;;;;;;;;;;;;;5106731;28;19969;-56
2023/12/07 02:27:47;;;;;;;;;;;;;;;;;;5107302;28;19923;-57
2023/12/07 02:30:13;;;;;;;;;;;;;;;;;;5107228;28;20386;-57
2023/12/07 02:32:38;;;;;;;;;;;;;;;;;;5107279;28;19953;-57
2023/12/07 02:35:04;;;;;;;;;;;;;;;;;;5106963;28;20010;-57
2023/12/07 02:37:29;;;;;;;;;;;;;;;;;;5107549;28;20505;-57
2023/12/07 02:39:55;;;;;;;;;;;;;;;;;;5107472;28;19932;-57
2023/12/07 02:42:20;;;;;;;;;;;;;;;;;;5107602;28;19959;-57
2023/12/07 02:44:46;;;;;;;;;;;;;;;;;;5106290;28;20096;-57
2023/12/07 02:47:11;;;;;;;;;;;;;;;;;;5108146;28;20022;-57
2023/12/07 02:49:37;;;;;;;;;;;;;;;;;;5107259;28;19967;-57
2023/12/07 02:52:02;;;;;;;;;;;;;;;;;;5107640;28;20015;-57
2023/12/07 02:54:28;;;;;;;;;;;;;;;;;;5107585;28;19989;-57
2023/12/07 02:56:53;;;;;;;;;;;;;;;;;;5107180;28;19932;-56
2023/12/07 02:59:19;;;;;;;;;;;;;;;;;;5107400;28;19971;-57
2023/12/07 03:01:44;;;;;;;;;;;;;;;;;;5106502;28;20034;-57
2023/12/07 03:04:10;;;;;;;;;;;;;;;;;;5106986;28;19979;-57
2023/12/07 03:06:35;;;;;;;;;;;;;;;;;;5107617;28;19924;-57
2023/12/07 03:09:00;;;;;;;;;;;;;;;;;;5107147;28;19954;-57
2023/12/07 03:11:26;;;;;;;;;;;;;;;;;;5106803;28;20019;-57
2023/12/07 03:13:51;;;;;;;;;;;;;;;;;;5106391;28;20044;-57
2023/12/07 03:16:17;;;;;;;;;;;;;;;;;;5106273;28;20162;-57
2023/12/07 03:18:42;;;;;;;;;;;;;;;;;;5107106;28;19989;-57
2023/12/07 03:21:08;;;;;;;;;;;;;;;;;;5106709;28;20022;-57
2023/12/07 03:23:33;;;;;;;;;;;;;;;;;;5106823;28;20478;-57
2023/12/07 03:25:59;;;;;;;;;;;;;;;;;;5106402;28;19975;-57
2023/12/07 03:28:24;;;;;;;;;;;;;;;;;;5107341;28;19932;-57
2023/12/07 03:30:50;;;;;;;;;;;;;;;;;;5107144;28;20355;-57
2023/12/07 03:33:15;;;;;;;;;;;;;;;;;;5106808;28;20022;-57
2023/12/07 03:35:41;;;;;;;;;;;;;;;;;;5106454;28;19968;-57
2023/12/07 03:38:06;;;;;;;;;;;;;;;;;;5106599;28;20415;-57
2023/12/07 03:40:32;;;;;;;;;;;;;;;;;;5106589;28;20597;-57
2023/12/07 03:42:57;;;;;;;;;;;;;;;;;;5105777;28;19924;-57
2023/12/07 03:45:23;;;;;;;;;;;;;;;;;;5106135;28;19947;-57
2023/12/07 03:47:48;;;;;;;;;;;;;;;;;;5105996;28;20284;-57
2023/12/07 03:50:14;;;;;;;;;;;;;;;;;;5106700;28;19946;-57
2023/12/07 03:52:39;;;;;;;;;;;;;;;;;;5106661;28;19930;-57
2023/12/07 03:55:05;;;;;;;;;;;;;;;;;;5106620;28;20044;-57
2023/12/07 03:57:31;;;;;;;;;;;;;;;;;;5106733;28;19935;-57
2023/12/07 03:59:56;;;;;;;;;;;;;;;;;;5106805;28;19963;-56
2023/12/07 04:02:22;;;;;;;;;;;;;;;;;;5106171;28;19924;-57
2023/12/07 04:04:48;;;;;;;;;;;;;;;;;;5105669;28;20367;-57
2023/12/07 04:07:13;;;;;;;;;;;;;;;;;;5106457;28;20023;-57
2023/12/07 04:09:38;;;;;;;;;;;;;;;;;;5105662;28;19981;-57
2023/12/07 04:12:04;;;;;;;;;;;;;;;;;;5107447;28;20062;-57
2023/12/07 04:14:29;;;;;;;;;;;;;;;;;;5108854;28;20274;-57
2023/12/07 04:16:55;;;;;;;;;;;;;;;;;;5109674;28;20006;-57
2023/12/07 04:19:20;;;;;;;;;;;;;;;;;;5109703;28;19927;-57
2023/12/07 04:21:46;;;;;;;;;;;;;;;;;;5109317;28;20018;-57
2023/12/07 04:24:11;;;;;;;;;;;;;;;;;;5109196;28;19985;-57
2023/12/07 04:26:37;;;;;;;;;;;;;;;;;;5112811;28;20010;-58
2023/12/07 04:29:02;;;;;;;;;;;;;;;;;;5110199;28;20010;-57
2023/12/07 04:31:28;;;;;;;;;;;;;;;;;;5109946;28;19923;-57
2023/12/07 04:33:53;;;;;;;;;;;;;;;;;;5109130;28;19931;-57
2023/12/07 04:36:19;;;;;;;;;;;;;;;;;;5109247;28;20023;-57
2023/12/07 04:38:44;;;;;;;;;;;;;;;;;;5109339;28;19925;-57
2023/12/07 04:41:10;;;;;;;;;;;;;;;;;;5109765;28;20032;-57
2023/12/07 04:43:35;;;;;;;;;;;;;;;;;;5108932;28;20014;-57
2023/12/07 04:46:01;;;;;;;;;;;;;;;;;;5109093;28;20335;-57
2023/12/07 04:48:26;;;;;;;;;;;;;;;;;;5109953;28;20010;-57
2023/12/07 04:50:52;;;;;;;;;;;;;;;;;;5109503;28;19947;-57
2023/12/07 04:53:17;;;;;;;;;;;;;;;;;;5108886;28;19974;-57
2023/12/07 04:55:47;;;;;;;;;;;;;;;;;;5109769;28;19967;-56
2023/12/07 04:58:13;;;;;;;;;;;;;;;;;;5109272;28;19932;-57
2023/12/07 05:00:38;;;;;;;;;;;;;;;;;;5109577;28;19930;-58
2023/12/07 05:03:04;;;;;;;;;;;;;;;;;;5108303;28;20026;-57
2023/12/07 05:05:29;;;;;;;;;;;;;;;;;;5108856;28;20321;-57
2023/12/07 05:07:55;;;;;;;;;;;;;;;;;;5109115;28;20014;-57
2023/12/07 05:10:20;;;;;;;;;;;;;;;;;;5108107;28;20035;-57
2023/12/07 05:12:45;;;;;;;;;;;;;;;;;;5108227;28;20438;-56
2023/12/07 05:15:11;;;;;;;;;;;;;;;;;;5107756;28;19927;-57
2023/12/07 05:17:36;;;;;;;;;;;;;;;;;;5108517;28;19931;-57
2023/12/07 05:20:02;;;;;;;;;;;;;;;;;;5108855;28;19931;-57
2023/12/07 05:22:28;;;;;;;;;;;;;;;;;;5108589;28;19924;-57
2023/12/07 05:24:54;;;;;;;;;;;;;;;;;;5107887;28;19928;-57
2023/12/07 05:27:19;;;;;;;;;;;;;;;;;;5109790;28;19932;-57
2023/12/07 05:29:45;;;;;;;;;;;;;;;;;;5108456;28;19971;-57
2023/12/07 05:32:10;;;;;;;;;;;;;;;;;;5108649;28;19934;-57
2023/12/07 05:34:36;;;;;;;;;;;;;;;;;;5108523;28;19928;-56
2023/12/07 05:37:01;;;;;;;;;;;;;;;;;;5108400;28;19930;-56
2023/12/07 05:39:27;;;;;;;;;;;;;;;;;;5108482;28;19974;-57
2023/12/07 05:41:53;;;;;;;;;;;;;;;;;;5107882;28;19931;-57
2023/12/07 05:44:21;;;;;;;;;;;;;;;;;;5108319;28;20042;-57
2023/12/07 05:46:47;;;;;;;;;;;;;;;;;;5108702;28;20057;-57
2023/12/07 05:49:12;;;;;;;;;;;;;;;;;;5109125;28;20047;-57
2023/12/07 05:51:38;;;;;;;;;;;;;;;;;;5108593;28;19932;-57
2023/12/07 05:54:04;;;;;;;;;;;;;;;;;;5108236;28;20069;-57
2023/12/07 05:56:31;;;;;;;;;;;;;;;;;;5108802;28;20033;-58
2023/12/07 05:58:56;;;;;;;;;;;;;;;;;;5108211;28;19924;-57
2023/12/07 06:01:22;;;;;;;;;;;;;;;;;;5106667;28;20402;-57
2023/12/07 06:03:47;;;;;;;;;;;;;;;;;;5100156;28;19928;-56
2023/12/07 06:06:13;;;;;;;;;;;;;;;;;;5107109;28;20440;-57
2023/12/07 06:08:38;;;;;;;;;;;;;;;;;;5106984;28;20022;-57
2023/12/07 06:11:04;;;;;;;;;;;;;;;;;;5107604;28;20018;-57
2023/12/07 06:13:29;;;;;;;;;;;;;;;;;;5106486;28;20267;-57
2023/12/07 06:15:55;;;;;;;;;;;;;;;;;;5107240;28;19931;-57
2023/12/07 06:18:20;;;;;;;;;;;;;;;;;;5106319;28;20329;-57
2023/12/07 06:20:47;;;;;;;;;;;;;;;;;;5107824;28;19971;-57
2023/12/07 06:23:12;;;;;;;;;;;;;;;;;;5105260;28;20027;-57
2023/12/07 06:25:38;;;;;;;;;;;;;;;;;;5107284;28;19973;-57
2023/12/07 06:28:04;;;;;;;;;;;;;;;;;;5107895;28;19923;-59
2023/12/07 06:30:29;;;;;;;;;;;;;;;;;;5111194;28;20034;-59
2023/12/07 06:32:54;;;;;;;;;;;;;;;;;;5106579;28;19923;-59
2023/12/07 06:35:20;;;;;;;;;;;;;;;;;;5106131;28;20019;-59
2023/12/07 06:37:45;;;;;;;;;;;;;;;;;;5105212;28;19971;-58
2023/12/07 06:40:11;;;;;;;;;;;;;;;;;;5105055;28;19977;-59
2023/12/07 06:42:36;;;;;;;;;;;;;;;;;;5105284;28;19959;-59
2023/12/07 06:45:02;;;;;;;;;;;;;;;;;;5106164;28;19934;-58
2023/12/07 06:47:27;;;;;;;;;;;;;;;;;;5107182;28;19932;-59
2023/12/07 06:49:53;;;;;;;;;;;;;;;;;;5105314;28;20050;-59
2023/12/07 06:52:18;;;;;;;;;;;;;;;;;;5104503;28;20387;-59
2023/12/07 06:54:44;;;;;;;;;;;;;;;;;;5104803;28;20014;-60
2023/12/07 06:57:09;;;;;;;;;;;;;;;;;;5104547;28;20397;-59
2023/12/07 06:59:35;;;;;;;;;;;;;;;;;;5101843;28;19931;-59
2023/12/07 07:02:01;;;;;;;;;;;;;;;;;;5102712;28;20879;-58
2023/12/07 07:04:26;;;;;;;;;;;;;;;;;;5098028;28;20828;-59
2023/12/07 07:06:51;;;;;;;;;;;;;;;;;;5103015;28;19971;-59
2023/12/07 07:09:17;;;;;;;;;;;;;;;;;;5096443;28;19947;-58
2023/12/07 07:11:42;;;;;;;;;;;;;;;;;;5101871;28;20019;-58
2023/12/07 07:14:08;;;;;;;;;;;;;;;;;;5098740;28;20387;-58
2023/12/07 07:16:33;;;;;;;;;;;;;;;;;;5100237;28;20396;-58
2023/12/07 07:18:59;;;;;;;;;;;;;;;;;;5100829;28;19924;-58
2023/12/07 07:21:25;;;;;;;;;;;;;;;;;;5098172;28;19924;-58
2023/12/07 07:23:50;;;;;;;;;;;;;;;;;;5098780;28;19998;-59
2023/12/07 07:26:17;;;;;;;;;;;;;;;;;;5099916;28;19952;-58
2023/12/07 07:28:42;;;;;;;;;;;;;;;;;;5100400;28;20350;-58
2023/12/07 07:31:08;;;;;;;;;;;;;;;;;;5099517;28;20383;-58
2023/12/07 07:33:33;;;;;;;;;;;;;;;;;;5099191;28;20006;-58
2023/12/07 07:35:59;;;;;;;;;;;;;;;;;;5096638;28;20419;-58
2023/12/07 07:38:26;;;;;;;;;;;;;;;;;;5096754;28;20335;-58
2023/12/07 07:40:52;;;;;;;;;;;;;;;;;;5097160;28;19978;-58
2023/12/07 07:43:17;;;;;;;;;;;;;;;;;;5097388;28;20303;-58
2023/12/07 07:45:43;;;;;;;;;;;;;;;;;;5096009;28;19959;-58
2023/12/07 07:48:08;;;;;;;;;;;;;;;;;;5096752;28;20028;-58
2023/12/07 07:50:36;;;;;;;;;;;;;;;;;;5100525;28;19927;-58
2023/12/07 07:53:01;;;;;;;;;;;;;;;;;;5098362;28;19928;-58
2023/12/07 07:55:27;;;;;;;;;;;;;;;;;;5097992;28;19976;-59
2023/12/07 07:57:52;;;;;;;;;;;;;;;;;;5098323;28;20030;-58
2023/12/07 08:00:19;;;;;;;;;;;;;;;;;;5097365;28;20363;-58
2023/12/07 08:02:44;;;;;;;;;;;;;;;;;;5094047;28;19981;-57
2023/12/07 08:05:11;;;;;;;;;;;;;;;;;;5094083;28;20576;-57
2023/12/07 08:07:36;;;;;;;;;;;;;;;;;;5092044;28;20653;-57
2023/12/07 08:10:03;;;;;;;;;;;;;;;;;;5093012;28;19924;-57
2023/12/07 08:12:29;;;;;;;;;;;;;;;;;;5091880;28;19966;-57
2023/12/07 08:14:54;;;;;;;;;;;;;;;;;;5093549;28;19924;-57
2023/12/07 08:17:21;;;;;;;;;;;;;;;;;;5098436;28;20373;-57
2023/12/07 08:19:47;;;;;;;;;;;;;;;;;;5096292;28;19924;-57
2023/12/07 08:22:12;;;;;;;;;;;;;;;;;;5098410;28;19924;-57
2023/12/07 08:24:38;;;;;;;;;;;;;;;;;;5098780;28;20064;-57
2023/12/07 08:27:03;;;;;;;;;;;;;;;;;;5093910;28;19932;-57
2023/12/07 08:29:29;;;;;;;;;;;;;;;;;;5095131;28;20023;-57
2023/12/07 08:31:54;;;;;;;;;;;;;;;;;;5096114;28;19985;-57
2023/12/07 08:34:20;;;;;;;;;;;;;;;;;;5095879;28;19946;-57
2023/12/07 08:36:49;;;;;;;;;;;;;;;;;;5095306;28;19984;-57
2023/12/07 08:39:14;;;;;;;;;;;;;;;;;;5097517;28;20022;-56
2023/12/07 08:41:40;;;;;;;;;;;;;;;;;;5092912;28;19971;-57
2023/12/07 08:44:05;;;;;;;;;;;;;;;;;;5096721;28;20434;-57
2023/12/07 08:46:31;;;;;;;;;;;;;;;;;;5091840;28;20264;-57
2023/12/07 08:48:57;;;;;;;;;;;;;;;;;;5092201;28;20101;-57
2023/12/07 08:51:22;;;;;;;;;;;;;;;;;;5095182;28;20432;-57
2023/12/07 08:53:48;;;;;;;;;;;;;;;;;;5096304;28;19975;-57
2023/12/07 08:56:16;;;;;;;;;;;;;;;;;;5094686;28;19985;-57
2023/12/07 08:58:42;;;;;;;;;;;;;;;;;;5090670;28;19928;-57
2023/12/07 09:01:07;;;;;;;;;;;;;;;;;;5093592;28;20354;-57
2023/12/07 09:03:38;;;;;;;;;;;;;;;;;;5094445;28;20469;-57
2023/12/07 09:06:05;;;;;;;;;;;;;;;;;;5097560;28;20050;-57
2023/12/07 09:08:30;;;;;;;;;;;;;;;;;;5098832;28;20409;-57
2023/12/07 09:10:56;;;;;;;;;;;;;;;;;;5093289;28;19931;-57
2023/12/07 09:13:21;;;;;;;;;;;;;;;;;;5092030;28;20027;-57
2023/12/07 09:15:47;;;;;;;;;;;;;;;;;;5087789;28;19959;-57
2023/12/07 09:18:12;;;;;;;;;;;;;;;;;;5008494;28;19936;-57
2023/12/07 09:20:45;;;;;;;;;;;;;;;;;;5012397;28;20392;-57
2023/12/07 09:23:11;;;;;;;;;;;;;;;;;;5006216;28;19972;-57
2023/12/07 09:25:36;;;;;;;;;;;;;;;;;;5005144;28;19967;-57
2023/12/07 09:28:02;;;;;;;;;;;;;;;;;;5018537;28;20039;-57
2023/12/07 09:30:28;;;;;;;;;;;;;;;;;;5014516;28;19932;-58
2023/12/07 09:32:53;;;;;;;;;;;;;;;;;;5010488;28;19956;-57
2023/12/07 09:35:19;;;;;;;;;;;;;;;;;;5014784;28;19975;-57
2023/12/07 09:37:44;;;;;;;;;;;;;;;;;;5088136;28;20616;-56
2023/12/07 09:40:10;;;;;;;;;;;;;;;;;;5089793;28;19988;-57
2023/12/07 09:42:36;;;;;;;;;;;;;;;;;;5092247;28;20426;-57
2023/12/07 09:45:02;;;;;;;;;;;;;;;;;;5090115;28;20463;-57
2023/12/07 09:47:28;;;;;;;;;;;;;;;;;;5092511;28;20018;-57
2023/12/07 09:49:59;;;;;;;;;;;;;;;;;;5092244;28;19939;-57
2023/12/07 09:52:25;;;;;;;;;;;;;;;;;;5096631;28;19927;-57
2023/12/07 09:54:50;;;;;;;;;;;;;;;;;;5098768;28;20329;-57
2023/12/07 09:57:16;;;;;;;;;;;;;;;;;;5100322;28;20027;-57
2023/12/07 09:59:41;;;;;;;;;;;;;;;;;;5091732;28;20082;-57
2023/12/07 10:02:07;;;;;;;;;;;;;;;;;;5090551;28;19928;-57
2023/12/07 10:04:33;;;;;;;;;;;;;;;;;;5093842;28;19962;-57
2023/12/07 10:06:58;;;;;;;;;;;;;;;;;;5096465;28;20071;-57
2023/12/07 10:09:24;;;;;;;;;;;;;;;;;;5091280;28;20461;-57
2023/12/07 10:11:58;;;;;;;;;;;;;;;;;;5093204;28;19924;-58
2023/12/07 10:14:24;;;;;;;;;;;;;;;;;;5095795;28;19971;-58
2023/12/07 10:16:49;;;;;;;;;;;;;;;;;;5088073;28;20717;-59
2023/12/07 10:19:17;;;;;;;;;;;;;;;;;;5085756;28;20050;-58
2023/12/07 10:21:54;;;;;;;;;;;;;;;;;;5083868;28;20030;-57
2023/12/07 10:24:20;;;;;;;;;;;;;;;;;;5085456;28;19928;-57
2023/12/07 10:26:45;;;;;;;;;;;;;;;;;;5086340;28;20374;-58
2023/12/07 10:29:11;;;;;;;;;;;;;;;;;;5091483;28;19928;-58
2023/12/07 10:31:49;;;;;;;;;;;;;;;;;;5088141;28;19950;-57
2023/12/07 10:34:14;;;;;;;;;;;;;;;;;;5091804;28;20290;-59
2023/12/07 10:36:40;;;;;;;;;;;;;;;;;;5085047;28;19994;-58
2023/12/07 10:39:07;;;;;;;;;;;;;;;;;;5087482;28;19928;-57
2023/12/07 10:41:40;;;;;;;;;;;;;;;;;;5087137;28;21536;-57
2023/12/07 10:44:06;;;;;;;;;;;;;;;;;;5090124;28;19932;-57
2023/12/07 10:46:31;;;;;;;;;;;;;;;;;;5090410;28;20030;-57
2023/12/07 10:48:57;;;;;;;;;;;;;;;;;;5093539;28;19932;-57
2023/12/07 10:51:22;;;;;;;;;;;;;;;;;;5081951;28;19938;-57
2023/12/07 10:53:48;;;;;;;;;;;;;;;;;;5080208;28;20348;-57
2023/12/07 10:56:13;;;;;;;;;;;;;;;;;;5078421;28;21477;-57
2023/12/07 10:58:39;;;;;;;;;;;;;;;;;;5092000;28;19924;-57
2023/12/07 11:01:05;;;;;;;;;;;;;;;;;;5086995;28;19970;-57
2023/12/07 11:03:30;;;;;;;;;;;;;;;;;;5084304;28;19924;-57
2023/12/07 11:05:56;;;;;;;;;;;;;;;;;;5090945;28;20496;-58
2023/12/07 11:08:22;;;;;;;;;;;;;;;;;;5088187;28;19932;-55
2023/12/07 11:10:48;;;;;;;;;;;;;;;;;;5089819;28;19972;-58
2023/12/07 11:13:13;;;;;;;;;;;;;;;;;;5097455;28;19924;-57
2023/12/07 11:15:39;;;;;;;;;;;;;;;;;;5096264;28;19961;-57
2023/12/07 11:18:04;;;;;;;;;;;;;;;;;;5098886;28;21137;-58
2023/12/07 11:20:30;;;;;;;;;;;;;;;;;;5098916;28;19924;-57
2023/12/07 11:22:55;;;;;;;;;;;;;;;;;;5089864;28;20014;-57
2023/12/07 11:25:21;;;;;;;;;;;;;;;;;;5089301;28;20019;-57
2023/12/07 11:27:47;;;;;;;;;;;;;;;;;;5092513;28;19932;-57
2023/12/07 11:30:12;;;;;;;;;;;;;;;;;;5088840;28;20453;-56
2023/12/07 11:32:38;;;;;;;;;;;;;;;;;;5086534;28;20030;-58
2023/12/07 11:35:04;;;;;;;;;;;;;;;;;;5087141;28;20050;-57
2023/12/07 11:37:30;;;;;;;;;;;;;;;;;;5091459;28;19924;-57
2023/12/07 11:39:55;;;;;;;;;;;;;;;;;;5085356;28;20351;-57
2023/12/07 11:42:21;;;;;;;;;;;;;;;;;;5085328;28;20275;-57
2023/12/07 11:44:49;;;;;;;;;;;;;;;;;;5084427;28;20431;-57
2023/12/07 11:47:14;;;;;;;;;;;;;;;;;;5087162;28;19923;-57
2023/12/07 11:49:40;;;;;;;;;;;;;;;;;;5088695;28;20253;-57
2023/12/07 11:52:05;;;;;;;;;;;;;;;;;;5085840;28;20411;-57
2023/12/07 11:54:31;;;;;;;;;;;;;;;;;;5083717;28;20283;-58
2023/12/07 11:56:56;;;;;;;;;;;;;;;;;;5082606;28;19923;-57
2023/12/07 11:59:22;;;;;;;;;;;;;;;;;;5088746;28;20019;-57
2023/12/07 12:01:56;;;;;;;;;;;;;;;;;;5087996;28;20444;-57
2023/12/07 12:04:22;;;;;;;;;;;;;;;;;;5091859;28;19924;-58
2023/12/07 12:06:47;;;;;;;;;;;;;;;;;;5091091;28;19928;-57
2023/12/07 12:09:13;;;;;;;;;;;;;;;;;;5092456;28;19924;-57
2023/12/07 12:11:42;;;;;;;;;;;;;;;;;;5096582;28;19928;-57
2023/12/07 12:14:08;;;;;;;;;;;;;;;;;;5096235;28;20076;-57
2023/12/07 12:16:33;;;;;;;;;;;;;;;;;;5090229;28;19979;-58
2023/12/07 12:18:59;;;;;;;;;;;;;;;;;;5092249;28;20278;-57
2023/12/07 12:21:25;;;;;;;;;;;;;;;;;;5092958;28;19931;-57
2023/12/07 12:23:51;;;;;;;;;;;;;;;;;;5088027;28;19971;-57
2023/12/07 12:26:16;;;;;;;;;;;;;;;;;;5091447;28;19924;-57
2023/12/07 12:28:42;;;;;;;;;;;;;;;;;;5090657;28;20195;-57
2023/12/07 12:31:07;;;;;;;;;;;;;;;;;;5089343;28;19967;-58
2023/12/07 12:33:33;;;;;;;;;;;;;;;;;;5090183;28;20010;-57
2023/12/07 12:35:58;;;;;;;;;;;;;;;;;;5099703;28;19982;-57
2023/12/07 12:38:24;;;;;;;;;;;;;;;;;;5099449;28;19985;-57
2023/12/07 12:40:56;;;;;;;;;;;;;;;;;;5104208;28;19963;-57
2023/12/07 12:43:22;;;;;;;;;;;;;;;;;;5097457;28;19932;-57
2023/12/07 12:45:47;;;;;;;;;;;;;;;;;;5101246;28;19927;-56
2023/12/07 12:48:13;;;;;;;;;;;;;;;;;;5105544;28;20362;-57
2023/12/07 12:50:38;;;;;;;;;;;;;;;;;;5102473;28;20290;-57
2023/12/07 12:53:04;;;;;;;;;;;;;;;;;;5099481;28;20152;-57
2023/12/07 12:55:30;;;;;;;;;;;;;;;;;;5096250;28;19931;-57
2023/12/07 12:57:55;;;;;;;;;;;;;;;;;;5100790;28;20019;-56
2023/12/07 13:00:21;;;;;;;;;;;;;;;;;;5102771;28;20018;-56
2023/12/07 13:02:47;;;;;;;;;;;;;;;;;;5104153;28;20030;-56
2023/12/07 13:05:12;;;;;;;;;;;;;;;;;;5102011;28;20364;-56
2023/12/07 13:07:38;;;;;;;;;;;;;;;;;;5096006;28;19923;-57
2023/12/07 13:10:03;;;;;;;;;;;;;;;;;;5099596;28;20258;-56
2023/12/07 13:12:30;;;;;;;;;;;;;;;;;;5101155;28;19924;-57
2023/12/07 13:14:55;;;;;;;;;;;;;;;;;;5105307;28;21617;-57
2023/12/07 13:17:21;;;;;;;;;;;;;;;;;;5097855;28;20005;-57
2023/12/07 13:19:46;;;;;;;;;;;;;;;;;;5095267;28;19932;-57
2023/12/07 13:22:12;;;;;;;;;;;;;;;;;;5093794;28;20272;-57
2023/12/07 13:24:37;;;;;;;;;;;;;;;;;;5091677;28;20379;-57
2023/12/07 13:27:03;;;;;;;;;;;;;;;;;;5097629;28;19927;-57
2023/12/07 13:29:28;;;;;;;;;;;;;;;;;;5089600;28;20383;-56
2023/12/07 13:32:00;;;;;;;;;;;;;;;;;;5092138;28;19935;-57
2023/12/07 13:34:26;;;;;;;;;;;;;;;;;;5086874;28;19938;-57
2023/12/07 13:36:52;;;;;;;;;;;;;;;;;;5090754;28;20022;-57
2023/12/07 13:39:20;;;;;;;;;;;;;;;;;;5093469;28;20034;-57
2023/12/07 13:41:54;;;;;;;;;;;;;;;;;;5098516;28;19970;-57
2023/12/07 13:44:20;;;;;;;;;;;;;;;;;;5097030;28;20022;-57
2023/12/07 13:46:53;;;;;;;;;;;;;;;;;;5098821;28;20363;-57
2023/12/07 13:49:19;;;;;;;;;;;;;;;;;;5099541;28;19931;-57
2023/12/07 13:51:50;;;;;;;;;;;;;;;;;;5099686;28;20383;-57
2023/12/07 13:54:16;;;;;;;;;;;;;;;;;;5099692;28;19934;-57
2023/12/07 13:56:59;;;;;;;;;;;;;;;;;;5097750;28;19946;-57
2023/12/07 13:59:25;;;;;;;;;;;;;;;;;;5100121;28;20395;-57
2023/12/07 14:01:51;;;;;;;;;;;;;;;;;;5099165;28;20022;-56
2023/12/07 14:04:16;;;;;;;;;;;;;;;;;;5101895;28;19931;-55
2023/12/07 14:06:49;;;;;;;;;;;;;;;;;;5101188;28;20189;-54
2023/12/07 14:09:14;;;;;;;;;;;;;;;;;;5098995;28;20282;-54
2023/12/07 14:11:40;;;;;;;;;;;;;;;;;;5102511;28;19924;-54
2023/12/07 14:14:05;;;;;;;;;;;;;;;;;;5098475;28;19967;-54
2023/12/07 14:16:33;;;;;;;;;;;;;;;;;;5099516;28;20034;-54
2023/12/07 14:19:11;;;;;;;;;;;;;;;;;;5098767;28;20500;-54
2023/12/07 14:21:40;;;;;;;;;;;;;;;;;;5095739;28;20053;-54
2023/12/07 14:24:17;;;;;;;;;;;;;;;;;;5093789;28;19969;-54
2023/12/07 14:26:43;;;;;;;;;;;;;;;;;;5096037;28;19982;-54
2023/12/07 14:29:14;;;;;;;;;;;;;;;;;;5093019;28;19955;-55
2023/12/07 14:31:43;;;;;;;;;;;;;;;;;;5093289;28;20315;-58
2023/12/07 14:34:09;;;;;;;;;;;;;;;;;;5095617;28;20516;-57
2023/12/07 14:36:38;;;;;;;;;;;;;;;;;;5087240;28;19966;-57
2023/12/07 14:39:06;;;;;;;;;;;;;;;;;;5089425;28;20387;-57
2023/12/07 14:41:31;;;;;;;;;;;;;;;;;;5095020;28;19924;-54
2023/12/07 14:43:57;;;;;;;;;;;;;;;;;;5091522;28;20052;-54
2023/12/07 14:46:22;;;;;;;;;;;;;;;;;;5092016;28;20030;-54
2023/12/07 14:48:48;;;;;;;;;;;;;;;;;;5092396;28;19966;-54
2023/12/07 14:51:13;;;;;;;;;;;;;;;;;;5092823;28;20060;-54
2023/12/07 14:53:39;;;;;;;;;;;;;;;;;;5095285;28;20678;-55
2023/12/07 14:56:04;;;;;;;;;;;;;;;;;;5093103;28;20022;-55
2023/12/07 14:58:30;;;;;;;;;;;;;;;;;;5092346;28;20030;-57
2023/12/07 15:00:55;;;;;;;;;;;;;;;;;;5095586;28;19999;-57
2023/12/07 15:03:22;;;;;;;;;;;;;;;;;;5091003;28;19985;-57
2023/12/07 15:05:47;;;;;;;;;;;;;;;;;;5094927;28;20022;-57
2023/12/07 15:08:13;;;;;;;;;;;;;;;;;;5098215;28;20038;-57
2023/12/07 15:10:38;;;;;;;;;;;;;;;;;;5096330;28;20349;-57
2023/12/07 15:13:04;;;;;;;;;;;;;;;;;;5096726;28;20395;-57
2023/12/07 15:15:30;;;;;;;;;;;;;;;;;;5098156;28;20497;-57
2023/12/07 15:17:55;;;;;;;;;;;;;;;;;;5100761;28;19931;-57
2023/12/07 15:20:22;;;;;;;;;;;;;;;;;;5098962;28;19960;-58
2023/12/07 15:22:48;;;;;;;;;;;;;;;;;;5101120;28;20009;-55
2023/12/07 15:25:14;;;;;;;;;;;;;;;;;;5098439;28;21416;-54
2023/12/07 15:27:41;;;;;;;;;;;;;;;;;;5100150;28;19923;-54
2023/12/07 15:30:09;;;;;;;;;;;;;;;;;;5099228;28;19994;-54
2023/12/07 15:32:35;;;;;;;;;;;;;;;;;;5096587;28;19924;-55
2023/12/07 15:35:00;;;;;;;;;;;;;;;;;;5098692;28;20019;-55
2023/12/07 15:37:26;;;;;;;;;;;;;;;;;;5096594;28;20349;-55
2023/12/07 15:39:51;;;;;;;;;;;;;;;;;;5098273;28;20397;-55
2023/12/07 15:42:17;;;;;;;;;;;;;;;;;;5098581;28;20030;-55
2023/12/07 15:44:42;;;;;;;;;;;;;;;;;;5097994;28;20023;-55
2023/12/07 15:47:08;;;;;;;;;;;;;;;;;;5100796;28;20027;-55
2023/12/07 15:49:33;;;;;;;;;;;;;;;;;;5099797;28;20214;-55
2023/12/07 15:51:59;;;;;;;;;;;;;;;;;;5098253;28;20018;-55
2023/12/07 15:54:26;;;;;;;;;;;;;;;;;;5098486;28;19928;-55
2023/12/07 15:56:59;;;;;;;;;;;;;;;;;;5100356;28;19924;-55
2023/12/07 15:59:25;;;;;;;;;;;;;;;;;;5101772;28;19946;-55
2023/12/07 16:01:50;;;;;;;;;;;;;;;;;;5101599;28;19930;-55
2023/12/07 16:04:18;;;;;;;;;;;;;;;;;;5101170;28;20034;-55
2023/12/07 16:06:51;;;;;;;;;;;;;;;;;;5100309;28;20412;-55
2023/12/07 16:09:16;;;;;;;;;;;;;;;;;;5103134;28;20307;-54
2023/12/07 16:11:42;;;;;;;;;;;;;;;;;;5103867;28;20027;-55
2023/12/07 16:14:07;;;;;;;;;;;;;;;;;;5105563;28;20026;-55
2023/12/07 16:16:34;;;;;;;;;;;;;;;;;;5106026;28;19966;-54
2023/12/07 16:19:00;;;;;;;;;;;;;;;;;;5113759;28;19932;-55
2023/12/07 16:21:25;;;;;;;;;;;;;;;;;;5105295;28;19924;-55
2023/12/07 16:23:51;;;;;;;;;;;;;;;;;;5103616;28;19971;-54
2023/12/07 16:26:16;;;;;;;;;;;;;;;;;;5105217;28;19935;-55
2023/12/07 16:28:42;;;;;;;;;;;;;;;;;;5102688;28;20126;-55
2023/12/07 16:31:07;;;;;;;;;;;;;;;;;;5104563;28;20022;-55
2023/12/07 16:33:33;;;;;;;;;;;;;;;;;;5104405;28;19975;-55
2023/12/07 16:35:58;;;;;;;;;;;;;;;;;;5103192;28;20053;-55
2023/12/07 16:38:25;;;;;;;;;;;;;;;;;;5103045;28;19924;-55